Accueil
METAR-TAF:

METAR-TAF

Aéroports :

Aéroport de Châteauroux-Centre

Châteauroux, France

latitude: 46-51N, longitude: 001-43E, altitude: 160 m

Observation

Le bulletin a été fait il y a 10 minutes, à 19:00 UTC
Vent 10 kt de nord-est
Température 23°C
Humidité 50%
Pression 1021 hPa
Visibilité 10 km ou plus
pas de nuages en-dessous de 1500 mètres et pas de cumulonimbus.

METAR: LFLX 251900Z AUTO 05010KT CAVOK 23/12 Q1021 NOSIG

Heure: 21:10 (19:10 UTC)

Prévision

Le bulletin a été fait il y a 2 heures et 10 minutes, à 17:00 UTC
Prévision valable du 25 à 18 UTC au 26 à 24 UTC
Vent 7 kt de est/nord-est
Visibilité 10 km ou plus
pas de nuages en-dessous de 1500 mètres et pas de cumulonimbus.
Temporairement
du 26 à 12 UTC au 26 à 18 UTC
Vent 10 kt de est/nord-est avec des rafales jusqu'à 20 kt

TAF: LFLX 251700Z 2518/2624 06007KT CAVOK TEMPO 2612/2618 06010G20KT

Observations et prévisions météorologiques de plus de 4000 aéroports (messages METAR et TAF).

Les stations disponibles sont représentées par des disques jaunes et rouges sur la carte.

Passer la souris dessus pour voir le nom de la station.

Cliquer dessus pour voir les observations et prévisions météorologiques.

Pour changer de carte: cliquez sur les boutons verts avec une croix noire pour zoomer, sur le bouton vert avec un tiret pour effectuer un zoom arrière, ou sur les flèches vertes pour les cartes adjacentes.


METAR-TAF: